B17122 RCCM-RCCM

Flight info

Callsign B17122
Flight time 0h 12m
Altitude 30100
Route RCCM
Aircraft SF50/L-SDGRWY/L

Departure

Time 2026-05-04 06:21
Airport Qimei Airport (RCCM)

Arrival

Time 2026-05-04 06:34
Airport Qimei Airport (RCCM)
Time Latitude Longitude Altitude Speed Heading
2026-05-04 06:18 23.21096 119.41750 45 ft 0 kts 288°
2026-05-04 06:20 23.21008 119.41642 45 ft 14 kts 183°
2026-05-04 06:20 23.20990 119.41642 45 ft 1 kts 14°
2026-05-04 06:21 23.22548 119.41193 628 ft 115 kts 281°
2026-05-04 06:21 23.21918 119.40633 853 ft 132 kts 187°
2026-05-04 06:22 23.21029 119.40456 740 ft 127 kts 188°
2026-05-04 06:22 23.20212 119.40497 720 ft 114 kts 140°
2026-05-04 06:25 23.20700 119.41528 97 ft 65 kts 21°
2026-05-04 06:25 23.21098 119.41676 52 ft 58 kts 18°
2026-05-04 06:26 23.21474 119.41819 81 ft 66 kts 18°
2026-05-04 06:26 23.21909 119.41949 416 ft 67 kts 352°
2026-05-04 06:26 23.21975 119.41324 541 ft 125 kts 227°
2026-05-04 06:26 23.21214 119.41083 424 ft 106 kts 192°
2026-05-04 06:27 23.21137 119.41691 53 ft 53 kts 18°
2026-05-04 06:28 23.21513 119.41827 111 ft 68 kts 18°
2026-05-04 06:28 23.21953 119.41775 330 ft 94 kts 314°
2026-05-04 06:28 23.21633 119.41090 458 ft 141 kts 210°
2026-05-04 06:28 23.20942 119.40719 550 ft 114 kts 207°
2026-05-04 06:29 23.20179 119.40566 571 ft 114 kts 143°
2026-05-04 06:29 23.19973 119.41109 643 ft 75 kts 54°
2026-05-04 06:29 23.20366 119.41389 295 ft 65 kts 17°
2026-05-04 06:29 23.20778 119.41560 128 ft 58 kts 15°
2026-05-04 06:30 23.21154 119.41698 51 ft 52 kts 17°
2026-05-04 06:30 23.21576 119.41855 139 ft 60 kts 16°
2026-05-04 06:30 23.21974 119.41808 366 ft 78 kts 311°
2026-05-04 06:30 23.21623 119.41243 534 ft 120 kts 215°
2026-05-04 06:31 23.20829 119.40783 677 ft 140 kts 216°
2026-05-04 06:31 23.20102 119.40618 832 ft 90 kts 99°
2026-05-04 06:31 23.20109 119.41138 637 ft 71 kts 40°
2026-05-04 06:31 23.20517 119.41450 244 ft 72 kts 14°
2026-05-04 06:32 23.20933 119.41613 80 ft 56 kts 18°
2026-05-04 06:33 23.20340 119.41405 460 ft 68 kts 14°
2026-05-04 06:34 23.20778 119.41563 157 ft 60 kts 15°
2026-05-04 06:34 23.21129 119.41685 56 ft 46 kts 18°
2026-05-04 06:34 23.21428 119.41796 45 ft 43 kts 19°
2026-05-04 06:34 23.21600 119.41856 45 ft 15 kts 17°
2026-05-04 06:35 23.21630 119.41880 45 ft 0 kts 202°
2026-05-04 06:36 23.21357 119.41771 45 ft 8 kts 207°